Time;durP1;ratioP1;P1;durP2;ratioP2;P2;SDS_P1;SDS_P2;PMS_P1;PMS_P2;Temp;Humidity;BMP_temperature;BMP_pressure;BME280_temperature;BME280_humidity;BME280_pressure;Samples;Min_cycle;Max_cycle;Signal;HPM_P1;HPM_P2
2021/03/27 00:01:49;;;;;;;0.20;0.20;;;7.00;99.90;;;;;;4988071;28;20227;-93
2021/03/27 00:04:40;;;;;;;0.30;0.30;;;7.00;99.90;;;;;;4986526;28;20211;-92
2021/03/27 00:07:26;;;;;;;0.43;0.40;;;7.00;99.90;;;;;;4985968;28;20227;-93
2021/03/27 00:09:53;;;;;;;0.40;0.40;;;6.90;99.90;;;;;;5003488;28;20247;-91
2021/03/27 00:12:37;;;;;;;0.70;0.30;;;6.90;99.90;;;;;;5002613;28;20633;-91
2021/03/27 00:15:42;;;;;;;0.30;0.30;;;6.90;99.90;;;;;;4986202;28;20323;-92
2021/03/27 00:18:10;;;;;;;0.47;0.47;;;6.90;99.90;;;;;;4984717;28;20218;-92
2021/03/27 00:21:02;;;;;;;0.73;0.63;;;6.90;99.90;;;;;;5003379;28;20273;-93
2021/03/27 00:23:44;;;;;;;0.50;0.50;;;6.90;99.90;;;;;;4993989;28;20226;-89
2021/03/27 00:26:21;;;;;;;10.33;0.43;;;6.80;99.90;;;;;;4985532;28;20235;-89
2021/03/27 00:28:54;;;;;;;0.77;0.37;;;6.80;99.90;;;;;;4987312;28;20183;-92
2021/03/27 00:31:33;;;;;;;0.20;0.20;;;6.70;99.90;;;;;;4985255;28;20221;-93
2021/03/27 00:34:05;;;;;;;0.27;0.27;;;6.70;99.90;;;;;;4985361;28;20219;-92
2021/03/27 00:36:42;;;;;;;0.27;0.27;;;6.70;99.90;;;;;;4985881;28;20219;-92
2021/03/27 00:39:15;;;;;;;2.17;0.50;;;6.80;99.90;;;;;;4986207;28;20230;-92
2021/03/27 00:42:07;;;;;;;0.40;0.37;;;6.70;99.90;;;;;;5002305;28;20219;-92
2021/03/27 00:44:39;;;;;;;0.80;0.80;;;6.70;99.90;;;;;;4984405;28;20226;-92
2021/03/27 00:47:06;;;;;;;0.70;0.70;;;6.80;99.90;;;;;;5004340;28;20192;-92
2021/03/27 00:49:44;;;;;;;0.30;0.30;;;6.80;99.90;;;;;;4985589;28;20191;-92
2021/03/27 00:52:12;;;;;;;0.40;0.40;;;6.80;99.90;;;;;;4984634;28;20222;-92
2021/03/27 00:55:01;;;;;;;0.90;0.80;;;6.80;99.90;;;;;;4985522;28;20223;-92
2021/03/27 00:57:34;;;;;;;1.80;0.40;;;6.90;99.90;;;;;;4985541;28;20261;-91
2021/03/27 01:00:21;;;;;;;0.30;0.30;;;6.80;99.90;;;;;;4995730;28;20330;-92
2021/03/27 01:02:54;;;;;;;0.87;0.63;;;6.90;99.90;;;;;;5005389;28;20225;-92
2021/03/27 01:05:24;;;;;;;0.30;0.30;;;6.90;99.90;;;;;;4985357;28;20231;-92
2021/03/27 01:07:54;;;;;;;0.67;0.67;;;6.90;99.90;;;;;;4987011;28;20199;-92
2021/03/27 01:10:26;;;;;;;0.50;0.40;;;6.80;99.90;;;;;;4968680;28;20265;-92
2021/03/27 01:12:54;;;;;;;0.67;0.67;;;6.80;99.90;;;;;;5002352;28;20288;-91
2021/03/27 01:15:25;;;;;;;0.37;0.37;;;6.80;99.90;;;;;;4984176;28;20303;-91
2021/03/27 01:17:54;;;;;;;0.20;0.20;;;6.80;99.90;;;;;;5002564;28;20219;-91
2021/03/27 01:20:51;;;;;;;0.60;0.60;;;6.80;99.90;;;;;;4994365;28;20317;-92
2021/03/27 01:23:19;;;;;;;0.60;0.50;;;6.90;99.90;;;;;;4997893;28;20234;-90
2021/03/27 01:25:46;;;;;;;0.20;0.20;;;6.90;99.90;;;;;;4985253;28;20207;-92
2021/03/27 01:28:23;;;;;;;0.50;0.50;;;6.80;99.90;;;;;;4968429;28;20218;-92
2021/03/27 01:30:58;;;;;;;1.00;0.90;;;6.70;99.90;;;;;;4996590;28;20973;-92
2021/03/27 01:33:27;;;;;;;0.50;0.50;;;6.70;99.90;;;;;;4987232;28;20224;-91
2021/03/27 01:36:14;;;;;;;4.03;0.63;;;6.70;99.90;;;;;;4989467;28;20207;-91
2021/03/27 01:38:54;;;;;;;0.77;0.73;;;6.70;99.90;;;;;;5002803;28;20230;-91
2021/03/27 01:41:19;;;;;;;1.07;0.50;;;6.70;99.90;;;;;;5001835;28;20233;-90
2021/03/27 01:43:52;;;;;;;1.70;0.50;;;6.70;99.90;;;;;;5004614;28;20192;-90
2021/03/27 01:46:30;;;;;;;0.57;0.53;;;6.60;99.90;;;;;;5007716;28;20340;-91
2021/03/27 01:49:06;;;;;;;0.57;0.50;;;6.60;99.90;;;;;;5003854;28;20218;-92
2021/03/27 01:51:38;;;;;;;0.63;0.63;;;6.50;99.90;;;;;;4994559;28;20215;-90
2021/03/27 01:54:08;;;;;;;0.40;0.40;;;6.50;99.90;;;;;;4992853;28;20211;-91
2021/03/27 01:56:49;;;;;;;0.40;0.40;;;6.50;99.90;;;;;;4984136;28;20736;-90
2021/03/27 01:59:48;;;;;;;0.33;0.33;;;6.50;99.90;;;;;;5002449;28;20246;-90
2021/03/27 02:02:41;;;;;;;0.20;0.20;;;6.50;99.90;;;;;;4997575;28;20301;-91
2021/03/27 02:05:11;;;;;;;1.40;0.73;;;6.50;99.90;;;;;;5000614;28;20203;-92
2021/03/27 02:07:51;;;;;;;1.70;1.03;;;6.50;99.90;;;;;;5003980;28;20657;-89
2021/03/27 02:10:48;;;;;;;4.67;1.33;;;6.60;99.90;;;;;;5002532;28;20214;-91
2021/03/27 02:13:26;;;;;;;0.57;0.57;;;6.60;99.90;;;;;;4993794;28;20203;-91
2021/03/27 02:16:07;;;;;;;1.43;1.00;;;6.60;99.90;;;;;;4979530;28;20227;-91
2021/03/27 02:18:41;;;;;;;2.70;0.87;;;6.60;99.90;;;;;;4983966;28;20207;-92
2021/03/27 02:21:41;;;;;;;1.07;1.03;;;6.70;99.90;;;;;;4980750;28;20312;-91
2021/03/27 02:24:48;;;;;;;4.43;1.53;;;6.80;99.90;;;;;;5001888;28;20261;-90
2021/03/27 02:27:24;;;;;;;1.63;0.50;;;6.80;99.90;;;;;;4977442;28;20227;-90
2021/03/27 02:30:11;;;;;;;1.53;1.43;;;6.90;99.90;;;;;;4983661;28;20222;-90
2021/03/27 02:33:00;;;;;;;1.23;0.43;;;7.00;99.90;;;;;;4982919;28;20223;-91
2021/03/27 02:35:47;;;;;;;1.70;1.17;;;7.00;99.90;;;;;;5000362;28;20252;-91
2021/03/27 02:38:50;;;;;;;6.03;1.13;;;7.00;99.90;;;;;;4994610;28;20270;-91
2021/03/27 02:41:43;;;;;;;3.40;0.97;;;7.00;99.90;;;;;;4989580;28;21993;-91
2021/03/27 02:44:34;;;;;;;3.70;0.73;;;7.10;99.90;;;;;;4984535;28;20946;-90
2021/03/27 02:47:42;;;;;;;8.90;1.00;;;7.10;99.90;;;;;;4987645;28;20269;-89
2021/03/27 02:50:22;;;;;;;4.67;1.80;;;7.10;99.90;;;;;;4976735;28;20191;-90
2021/03/27 02:53:14;;;;;;;1.13;1.03;;;7.10;99.90;;;;;;5005687;28;20179;-91
2021/03/27 02:56:06;;;;;;;0.57;0.57;;;7.10;99.90;;;;;;4987760;28;20270;-91
2021/03/27 02:58:47;;;;;;;4.43;0.80;;;7.00;99.90;;;;;;5004003;28;20208;-91
2021/03/27 03:01:24;;;;;;;0.40;0.40;;;7.10;99.90;;;;;;5003794;28;20699;-90
2021/03/27 03:03:57;;;;;;;2.60;1.43;;;7.10;99.90;;;;;;4994955;28;20215;-90
2021/03/27 03:06:38;;;;;;;0.70;0.70;;;7.00;99.90;;;;;;4987101;28;20235;-89
2021/03/27 03:09:13;;;;;;;1.50;0.83;;;7.00;99.90;;;;;;5001909;28;20219;-90
2021/03/27 03:12:02;;;;;;;4.53;1.47;;;6.90;99.90;;;;;;5000425;28;20242;-91
2021/03/27 03:14:46;;;;;;;1.93;0.93;;;6.90;99.90;;;;;;4988560;28;20230;-90
2021/03/27 03:17:37;;;;;;;1.33;1.27;;;6.90;99.90;;;;;;4984661;28;20218;-90
2021/03/27 03:20:20;;;;;;;1.53;1.43;;;6.80;99.90;;;;;;4984184;28;20179;-89
2021/03/27 03:23:35;;;;;;;0.83;0.83;;;6.80;99.90;;;;;;5004777;28;20195;-89
2021/03/27 03:26:19;;;;;;;0.80;0.80;;;6.80;99.90;;;;;;4926906;29;20271;-92
2021/03/27 03:28:55;;;;;;;0.50;0.50;;;6.70;99.90;;;;;;4998298;28;20270;-89
2021/03/27 03:31:45;;;;;;;1.33;1.17;;;6.70;99.90;;;;;;5002944;28;20246;-88
2021/03/27 03:34:12;;;;;;;3.37;1.13;;;6.70;99.90;;;;;;5005334;28;20230;-90
2021/03/27 03:37:03;;;;;;;1.83;0.67;;;6.60;99.90;;;;;;4987930;28;20227;-89
2021/03/27 03:40:11;;;;;;;5.47;1.40;;;6.60;99.90;;;;;;5005186;28;20223;-89
2021/03/27 03:43:04;;;;;;;0.93;0.57;;;6.60;99.90;;;;;;4939053;28;20221;-89
2021/03/27 03:45:51;;;;;;;0.27;0.27;;;6.60;99.90;;;;;;4925326;28;20287;-89
2021/03/27 03:48:40;;;;;;;0.50;0.50;;;6.60;99.90;;;;;;4989226;28;20740;-89
2021/03/27 03:51:24;;;;;;;6.17;1.00;;;6.60;99.90;;;;;;5002174;28;20334;-88
2021/03/27 03:54:12;;;;;;;1.57;1.47;;;6.60;99.90;;;;;;5003009;28;20258;-89
2021/03/27 03:57:32;;;;;;;5.00;0.37;;;6.60;99.90;;;;;;5007466;28;20277;-88
2021/03/27 04:00:18;;;;;;;16.57;1.17;;;6.50;99.90;;;;;;4988775;28;20223;-88
2021/03/27 04:03:24;;;;;;;1.13;0.97;;;6.50;99.90;;;;;;5005406;28;20277;-88
2021/03/27 04:06:04;;;;;;;0.50;0.50;;;6.40;99.90;;;;;;4995926;28;20326;-88
2021/03/27 04:08:40;;;;;;;7.77;1.30;;;6.40;99.90;;;;;;4985923;28;20231;-90
2021/03/27 04:11:17;;;;;;;4.53;0.93;;;6.30;99.90;;;;;;5004658;28;20277;-89
2021/03/27 04:13:51;;;;;;;4.00;1.00;;;6.30;99.90;;;;;;4997228;28;20187;-87
2021/03/27 04:16:22;;;;;;;0.47;0.47;;;6.30;99.90;;;;;;4986740;28;20233;-88
2021/03/27 04:19:15;;;;;;;1.50;1.40;;;6.20;99.90;;;;;;5003880;28;20539;-88
2021/03/27 04:21:50;;;;;;;0.80;0.50;;;6.20;99.90;;;;;;5001961;28;20250;-88
2021/03/27 04:24:27;;;;;;;1.40;0.70;;;6.10;99.90;;;;;;4996514;28;20700;-89
2021/03/27 04:27:02;;;;;;;2.63;0.80;;;6.10;99.90;;;;;;5003146;28;20235;-90
2021/03/27 04:29:42;;;;;;;3.07;1.10;;;6.10;99.90;;;;;;5002145;28;20261;-89
2021/03/27 04:32:17;;;;;;;4.57;2.30;;;6.10;99.90;;;;;;5002786;28;20176;-87
2021/03/27 04:34:46;;;;;;;7.07;0.93;;;6.20;99.90;;;;;;5004161;28;20187;-88
2021/03/27 04:37:20;;;;;;;4.03;0.87;;;6.30;99.90;;;;;;4986308;28;20219;-88
2021/03/27 04:40:00;;;;;;;0.90;0.87;;;6.40;99.90;;;;;;4985560;28;20219;-87
2021/03/27 04:42:41;;;;;;;1.37;0.57;;;6.40;99.90;;;;;;4985640;28;20226;-90
2021/03/27 04:45:09;;;;;;;0.57;0.57;;;6.50;99.90;;;;;;5001887;28;21247;-89
2021/03/27 04:47:43;;;;;;;0.40;0.37;;;6.50;99.90;;;;;;5003690;28;20235;-88
2021/03/27 04:50:24;;;;;;;5.27;1.10;;;6.50;99.90;;;;;;4985215;28;20179;-89
2021/03/27 04:53:06;;;;;;;3.27;0.40;;;6.50;99.90;;;;;;5003357;28;20229;-89
2021/03/27 04:55:42;;;;;;;1.07;0.40;;;6.50;99.90;;;;;;5004526;28;20222;-87
2021/03/27 04:58:29;;;;;;;0.90;0.90;;;6.50;99.90;;;;;;5003354;28;20226;-87
2021/03/27 05:01:02;;;;;;;1.57;0.97;;;6.60;99.90;;;;;;5001453;28;20257;-88
2021/03/27 05:03:33;;;;;;;0.93;0.93;;;6.60;99.90;;;;;;5001204;28;20939;-87
2021/03/27 05:06:24;;;;;;;1.97;0.67;;;6.60;99.90;;;;;;5000804;28;20239;-86
2021/03/27 05:09:19;;;;;;;3.27;1.90;;;6.60;99.90;;;;;;5002350;28;20223;-89
2021/03/27 05:12:04;;;;;;;1.60;0.63;;;6.60;99.90;;;;;;4948381;28;20233;-87
2021/03/27 05:14:38;;;;;;;5.00;1.37;;;6.60;99.90;;;;;;5002828;28;20325;-85
2021/03/27 05:17:08;;;;;;;1.73;1.63;;;6.60;99.90;;;;;;5002554;28;20197;-89
2021/03/27 05:20:02;;;;;;;1.40;0.83;;;6.50;99.90;;;;;;4985311;28;20187;-88
2021/03/27 05:22:55;;;;;;;2.93;0.50;;;6.50;99.90;;;;;;5001133;28;20471;-89
2021/03/27 05:25:58;;;;;;;1.40;1.30;;;6.40;99.90;;;;;;4993156;28;20242;-89
2021/03/27 05:28:27;;;;;;;1.27;0.60;;;6.40;99.90;;;;;;4994164;28;20716;-88
2021/03/27 05:30:56;;;;;;;2.43;0.80;;;6.50;99.90;;;;;;4994679;28;20225;-89
2021/03/27 05:33:25;;;;;;;0.40;0.40;;;6.20;99.90;;;;;;4995315;28;20223;-91
2021/03/27 05:35:53;;;;;;;3.23;0.77;;;5.80;99.90;;;;;;5002812;28;20259;-91
2021/03/27 05:38:38;;;;;;;1.27;1.17;;;5.60;99.90;;;;;;4994437;28;20227;-91
2021/03/27 05:41:27;;;;;;;2.77;1.57;;;5.40;99.90;;;;;;5001142;28;20254;-91
2021/03/27 05:44:26;;;;;;;0.50;0.50;;;5.30;99.90;;;;;;5001706;28;20187;-92
2021/03/27 05:47:16;;;;;;;0.83;0.50;;;5.30;99.90;;;;;;5001808;28;20603;-92
2021/03/27 05:50:05;;;;;;;0.60;0.60;;;5.40;99.90;;;;;;4984975;28;20226;-91
2021/03/27 05:53:19;;;;;;;1.73;0.50;;;5.50;99.90;;;;;;5003532;28;20790;-91
2021/03/27 05:56:15;;;;;;;0.40;0.40;;;5.60;99.90;;;;;;4978248;28;20309;-87
2021/03/27 05:58:43;;;;;;;0.63;0.63;;;5.60;99.90;;;;;;4984686;28;20215;-89
2021/03/27 06:01:42;;;;;;;0.40;0.40;;;5.60;99.90;;;;;;4993020;28;20219;-90
2021/03/27 06:04:32;;;;;;;0.30;0.30;;;5.60;99.90;;;;;;4978669;28;20263;-89
2021/03/27 06:07:03;;;;;;;0.50;0.50;;;5.60;99.90;;;;;;4983502;28;20231;-88
2021/03/27 06:09:29;;;;;;;0.63;0.63;;;5.60;99.90;;;;;;5000069;28;20326;-90
2021/03/27 06:12:23;;;;;;;0.67;0.60;;;5.60;99.90;;;;;;5002916;28;20615;-92
2021/03/27 06:15:21;;;;;;;1.70;0.43;;;5.60;99.90;;;;;;5003395;28;20713;-90
2021/03/27 06:18:14;;;;;;;0.30;0.30;;;5.60;99.90;;;;;;4999958;28;20211;-91
2021/03/27 06:20:55;;;;;;;0.70;0.70;;;5.50;99.90;;;;;;5004067;28;20251;-91
2021/03/27 06:23:42;;;;;;;0.30;0.30;;;5.70;99.90;;;;;;5007768;28;20218;-91
2021/03/27 06:26:23;;;;;;;0.30;0.30;;;6.30;99.90;;;;;;5005031;28;21008;-91
2021/03/27 06:29:07;;;;;;;2.03;1.33;;;6.50;99.90;;;;;;5012095;28;20191;-91
2021/03/27 06:31:41;;;;;;;2.97;1.17;;;6.80;99.90;;;;;;5009994;28;20243;-91
2021/03/27 06:34:19;;;;;;;2.67;0.67;;;7.10;99.90;;;;;;4987408;28;20218;-91
2021/03/27 06:36:56;;;;;;;0.77;0.70;;;7.30;99.90;;;;;;5004310;28;20250;-92
2021/03/27 06:39:47;;;;;;;3.33;0.97;;;7.30;99.90;;;;;;5004206;28;20317;-91
2021/03/27 06:42:31;;;;;;;0.37;0.37;;;7.00;99.90;;;;;;4988076;28;20223;-90
2021/03/27 06:45:16;;;;;;;5.23;1.10;;;6.90;99.90;;;;;;5004163;28;20303;-92
2021/03/27 06:47:51;;;;;;;2.33;0.87;;;6.90;99.90;;;;;;4995861;28;20231;-90
2021/03/27 06:51:01;;;;;;;0.67;0.67;;;7.10;99.90;;;;;;4987766;28;26479;-90
2021/03/27 06:54:00;;;;;;;0.40;0.40;;;7.60;99.90;;;;;;4995670;28;20239;-90
2021/03/27 06:56:38;;;;;;;17.07;2.30;;;7.50;99.90;;;;;;4985974;28;20261;-90
2021/03/27 06:59:31;;;;;;;0.40;0.40;;;7.50;99.90;;;;;;4987446;28;20195;-90
2021/03/27 07:02:35;;;;;;;1.43;1.13;;;7.60;99.90;;;;;;5004678;28;20199;-90
2021/03/27 07:05:09;;;;;;;3.67;1.90;;;7.80;99.90;;;;;;4956901;28;20212;-89
2021/03/27 07:08:01;;;;;;;2.57;0.60;;;7.40;99.90;;;;;;5001971;28;20564;-90
2021/03/27 07:10:59;;;;;;;2.07;1.23;;;7.20;99.90;;;;;;4988242;28;20269;-89
2021/03/27 07:14:06;;;;;;;0.20;0.20;;;6.90;99.90;;;;;;4978154;28;20231;-89
2021/03/27 07:17:06;;;;;;;1.90;1.80;;;6.90;99.90;;;;;;5003916;28;20302;-90
2021/03/27 07:19:54;;;;;;;2.27;1.03;;;7.00;99.90;;;;;;5006039;28;20231;-88
2021/03/27 07:22:44;;;;;;;4.70;0.97;;;6.90;99.90;;;;;;5005371;28;20238;-89
2021/03/27 07:25:41;;;;;;;0.30;0.30;;;6.80;99.90;;;;;;5005149;28;20239;-87
2021/03/27 07:28:24;;;;;;;0.67;0.67;;;6.60;99.90;;;;;;4986593;28;20223;-88
2021/03/27 07:31:27;;;;;;;5.17;4.67;;;6.50;99.90;;;;;;4995404;28;20327;-89
2021/03/27 07:33:55;;;;;;;3.20;1.10;;;6.60;99.90;;;;;;4996218;28;20218;-88
2021/03/27 07:36:31;;;;;;;2.30;1.30;;;6.60;99.90;;;;;;5004950;28;20281;-88
2021/03/27 07:39:20;;;;;;;0.40;0.40;;;6.80;99.90;;;;;;5005094;28;20253;-88
2021/03/27 07:42:24;;;;;;;0.70;0.70;;;8.30;99.90;;;;;;5004101;28;20279;-87
2021/03/27 07:45:19;;;;;;;1.60;1.13;;;9.40;99.90;;;;;;5005263;28;20223;-89
2021/03/27 07:47:57;;;;;;;0.40;0.40;;;10.00;99.90;;;;;;5004972;28;20598;-88
2021/03/27 07:50:54;;;;;;;18.90;3.23;;;10.10;99.90;;;;;;5004402;28;20231;-88
2021/03/27 07:53:25;;;;;;;0.80;0.80;;;9.10;99.90;;;;;;4994654;28;20269;-87
2021/03/27 07:56:05;;;;;;;1.03;1.03;;;7.90;99.90;;;;;;5001902;28;20203;-89
2021/03/27 07:58:46;;;;;;;3.70;0.40;;;7.50;99.90;;;;;;4999654;28;20235;-88
2021/03/27 08:01:39;;;;;;;3.00;0.93;;;7.20;99.90;;;;;;4999579;28;20207;-86
2021/03/27 08:04:36;;;;;;;1.30;0.60;;;7.70;99.90;;;;;;5001617;28;20688;-87
2021/03/27 08:07:16;;;;;;;2.00;1.90;;;9.30;99.90;;;;;;4993242;28;20243;-84
2021/03/27 08:10:19;;;;;;;1.87;1.00;;;10.30;99.90;;;;;;5002521;28;20226;-85
2021/03/27 08:13:22;;;;;;;2.17;0.53;;;10.10;99.90;;;;;;5002329;28;20215;-84
2021/03/27 08:15:56;;;;;;;1.53;0.63;;;9.30;99.90;;;;;;5001117;28;20594;-84
2021/03/27 08:18:28;;;;;;;0.90;0.70;;;8.50;99.90;;;;;;5000996;28;20242;-83
2021/03/27 08:21:17;;;;;;;4.23;0.70;;;7.80;99.90;;;;;;5003419;28;20239;-83
2021/03/27 08:24:05;;;;;;;1.90;0.97;;;7.40;99.90;;;;;;5002828;28;20234;-85
2021/03/27 08:26:52;;;;;;;1.70;0.53;;;7.50;99.90;;;;;;5001374;28;20235;-85
2021/03/27 08:29:42;;;;;;;1.57;1.33;;;9.10;99.90;;;;;;5000600;28;20288;-86
2021/03/27 08:32:29;;;;;;;0.33;0.33;;;10.30;99.90;;;;;;4983569;28;20215;-85
2021/03/27 08:35:20;;;;;;;11.83;0.90;;;10.50;99.90;;;;;;4998581;28;20194;-84
2021/03/27 08:38:05;;;;;;;1.00;0.93;;;10.30;99.90;;;;;;5007127;28;20318;-87
2021/03/27 08:40:47;;;;;;;2.00;0.83;;;8.70;99.90;;;;;;5003080;28;20342;-88
2021/03/27 08:43:42;;;;;;;3.37;1.23;;;8.30;99.90;;;;;;4984518;28;20215;-85
2021/03/27 08:46:20;;;;;;;12.43;1.20;;;8.20;99.90;;;;;;5000869;28;20239;-88
2021/03/27 08:49:04;;;;;;;3.20;0.90;;;8.00;99.90;;;;;;5000889;28;20219;-88
2021/03/27 08:51:58;;;;;;;0.60;0.60;;;8.60;99.90;;;;;;4997533;28;20258;-85
2021/03/27 08:54:52;;;;;;;0.50;0.50;;;8.00;99.90;;;;;;4995497;28;20298;-86
2021/03/27 08:57:26;;;;;;;0.40;0.40;;;7.30;99.90;;;;;;5001728;28;20214;-86
2021/03/27 09:00:24;;;;;;;1.37;1.27;;;6.70;99.90;;;;;;5001018;28;20218;-87
2021/03/27 09:03:20;;;;;;;0.47;0.47;;;6.80;99.90;;;;;;5002698;28;21052;-87
2021/03/27 09:06:19;;;;;;;10.73;2.30;;;7.10;99.90;;;;;;4999778;28;20259;-85
2021/03/27 09:09:24;;;;;;;0.50;0.50;;;7.10;99.90;;;;;;4980338;28;20228;-85
2021/03/27 09:12:18;;;;;;;1.60;1.60;;;7.50;99.90;;;;;;4995985;28;20215;-85
2021/03/27 09:15:00;;;;;;;0.30;0.30;;;8.00;99.90;;;;;;4991280;28;20298;-86
2021/03/27 09:17:38;;;;;;;2.93;0.93;;;8.30;99.90;;;;;;4979215;28;20276;-86
2021/03/27 09:20:22;;;;;;;2.50;0.73;;;8.20;99.90;;;;;;4979872;28;20230;-84
2021/03/27 09:22:51;;;;;;;0.33;0.27;;;8.20;99.90;;;;;;4998550;28;20235;-84
2021/03/27 09:25:54;;;;;;;0.77;0.53;;;8.30;99.90;;;;;;4996784;28;20805;-86
2021/03/27 09:28:32;;;;;;;0.77;0.77;;;8.70;99.90;;;;;;4995645;28;20230;-85
2021/03/27 09:31:30;;;;;;;1.23;1.23;;;9.20;99.90;;;;;;4980561;28;20214;-85
2021/03/27 09:34:15;;;;;;;1.07;0.53;;;9.70;99.90;;;;;;4985417;28;20223;-83
2021/03/27 09:36:51;;;;;;;2.30;0.80;;;9.30;99.90;;;;;;4999853;28;20779;-85
2021/03/27 09:39:55;;;;;;;1.03;0.90;;;8.90;99.90;;;;;;4983908;28;20215;-84
2021/03/27 09:42:47;;;;;;;4.33;0.83;;;9.30;99.90;;;;;;4924018;28;20256;-84
2021/03/27 09:45:43;;;;;;;3.30;0.90;;;8.90;99.90;;;;;;4960310;28;20235;-84
2021/03/27 09:48:21;;;;;;;0.73;0.70;;;8.30;99.90;;;;;;5000977;28;20720;-84
2021/03/27 09:51:09;;;;;;;1.60;1.27;;;8.20;99.90;;;;;;5000324;28;20227;-83
2021/03/27 09:54:01;;;;;;;0.30;0.30;;;9.40;99.90;;;;;;5000305;28;20219;-85
2021/03/27 09:56:38;;;;;;;5.40;1.27;;;10.30;99.90;;;;;;4983677;28;20254;-84
2021/03/27 09:59:32;;;;;;;2.00;1.20;;;10.60;99.90;;;;;;4983493;28;20198;-84
2021/03/27 10:02:12;;;;;;;1.83;0.67;;;10.40;99.90;;;;;;5000742;28;20187;-83
2021/03/27 10:04:58;;;;;;;0.87;0.60;;;10.90;99.90;;;;;;5001733;28;20187;-85
2021/03/27 10:07:41;;;;;;;2.10;0.87;;;9.90;99.90;;;;;;4983964;28;20310;-85
2021/03/27 10:10:31;;;;;;;1.40;0.50;;;9.90;99.90;;;;;;4982085;28;20219;-83
2021/03/27 10:13:35;;;;;;;0.70;0.70;;;9.60;99.90;;;;;;4993814;28;20223;-84
2021/03/27 10:16:03;;;;;;;0.90;0.90;;;8.50;99.90;;;;;;4986746;28;20325;-84
2021/03/27 10:18:41;;;;;;;2.37;0.57;;;7.90;99.90;;;;;;5002008;28;20216;-83
2021/03/27 10:21:34;;;;;;;0.70;0.70;;;7.70;99.90;;;;;;4983352;28;20329;-86
2021/03/27 10:24:42;;;;;;;1.03;0.90;;;8.10;99.90;;;;;;4999437;28;21220;-83
2021/03/27 10:27:23;;;;;;;4.83;0.70;;;8.50;99.90;;;;;;4988031;28;20353;-84
2021/03/27 10:30:03;;;;;;;2.13;0.53;;;8.50;99.90;;;;;;4993145;28;20219;-86
2021/03/27 10:32:45;;;;;;;6.43;0.70;;;7.50;99.90;;;;;;4997317;28;20234;-83
2021/03/27 10:35:35;;;;;;;1.60;0.50;;;7.00;99.90;;;;;;4997992;28;20195;-84
2021/03/27 10:38:03;;;;;;;10.33;1.13;;;6.70;99.90;;;;;;4972026;28;20194;-84
2021/03/27 10:40:38;;;;;;;0.50;0.50;;;6.50;99.90;;;;;;4990957;28;20191;-81
2021/03/27 10:43:25;;;;;;;2.60;0.50;;;6.60;99.90;;;;;;4982640;28;20214;-83
2021/03/27 10:45:59;;;;;;;0.70;0.60;;;6.70;99.90;;;;;;4997037;28;20566;-84
2021/03/27 10:48:41;;;;;;;1.23;0.70;;;6.70;99.90;;;;;;4998793;28;20234;-84
2021/03/27 10:51:31;;;;;;;2.97;1.30;;;6.70;99.90;;;;;;5000395;28;20215;-82
2021/03/27 10:54:29;;;;;;;0.50;0.50;;;6.60;99.90;;;;;;4983479;28;20227;-82
2021/03/27 10:57:13;;;;;;;0.30;0.30;;;6.40;99.90;;;;;;4993488;28;20323;-82
2021/03/27 10:59:54;;;;;;;1.70;1.67;;;6.40;99.90;;;;;;4999604;28;20979;-87
2021/03/27 11:02:58;;;;;;;0.53;0.53;;;6.40;99.90;;;;;;4999063;28;20225;-84
2021/03/27 11:05:36;;;;;;;0.60;0.60;;;6.30;99.90;;;;;;5002256;28;20243;-85
2021/03/27 11:08:35;;;;;;;3.50;1.90;;;6.70;99.90;;;;;;4999872;28;20215;-86
2021/03/27 11:11:12;;;;;;;1.90;1.23;;;8.10;99.90;;;;;;5003944;28;20203;-86
2021/03/27 11:13:48;;;;;;;6.30;0.50;;;9.80;99.90;;;;;;4996843;28;20691;-83
2021/03/27 11:16:45;;;;;;;3.50;0.80;;;9.60;99.90;;;;;;4997416;28;20318;-84
2021/03/27 11:19:26;;;;;;;6.47;1.23;;;10.40;99.90;;;;;;4996160;28;20285;-84
2021/03/27 11:22:03;;;;;;;0.30;0.30;;;10.20;99.90;;;;;;4995075;28;20312;-84
2021/03/27 11:24:50;;;;;;;0.30;0.30;;;9.00;99.90;;;;;;4996128;28;20270;-86
2021/03/27 11:27:22;;;;;;;1.37;0.90;;;8.50;99.90;;;;;;4986249;28;20269;-84
2021/03/27 11:30:23;;;;;;;2.67;0.90;;;8.80;99.90;;;;;;5002939;28;21509;-85
2021/03/27 11:33:02;;;;;;;2.37;1.60;;;8.30;99.90;;;;;;4994466;28;20231;-84
2021/03/27 11:35:52;;;;;;;1.70;0.53;;;8.50;99.90;;;;;;4986057;28;20233;-84
2021/03/27 11:38:44;;;;;;;0.30;0.30;;;9.00;99.90;;;;;;4985215;28;20222;-85
2021/03/27 11:41:24;;;;;;;2.93;0.43;;;9.20;99.90;;;;;;4986095;28;20230;-84
2021/03/27 11:44:25;;;;;;;0.57;0.57;;;8.90;99.90;;;;;;4986662;28;20192;-84
2021/03/27 11:47:02;;;;;;;0.50;0.50;;;8.90;99.90;;;;;;4983154;28;20833;-86
2021/03/27 11:49:50;;;;;;;4.37;1.43;;;9.70;99.90;;;;;;4986043;28;20672;-84
2021/03/27 11:52:36;;;;;;;1.10;1.07;;;9.10;99.90;;;;;;4985030;28;20306;-84
2021/03/27 11:55:23;;;;;;;1.50;0.70;;;9.10;99.90;;;;;;4984539;28;20215;-83
2021/03/27 11:58:13;;;;;;;2.33;1.13;;;9.80;99.90;;;;;;4976959;28;20549;-84
2021/03/27 12:01:00;;;;;;;2.13;0.67;;;10.70;99.90;;;;;;5001513;28;20217;-85
2021/03/27 12:04:04;;;;;;;1.83;1.07;;;10.80;99.90;;;;;;5000549;28;20231;-83
2021/03/27 12:06:50;;;;;;;0.40;0.40;;;9.60;99.90;;;;;;5000346;28;20261;-84
2021/03/27 12:09:20;;;;;;;4.80;1.57;;;9.40;99.90;;;;;;4985046;28;20695;-82
2021/03/27 12:11:52;;;;;;;4.97;1.33;;;9.20;99.90;;;;;;4985018;28;20692;-83
2021/03/27 12:14:42;;;;;;;1.00;0.53;;;9.60;99.90;;;;;;5001267;28;20227;-82
2021/03/27 12:17:19;;;;;;;6.10;0.87;;;9.70;99.90;;;;;;4993281;28;20199;-83
2021/03/27 12:20:02;;;;;;;0.30;0.30;;;9.00;99.90;;;;;;5001965;28;20179;-84
2021/03/27 12:22:35;;;;;;;11.13;2.10;;;8.90;99.90;;;;;;4998068;28;20238;-87
2021/03/27 12:25:23;;;;;;;4.07;1.60;;;9.00;99.90;;;;;;4989808;28;20230;-84
2021/03/27 12:28:10;;;;;;;1.13;0.63;;;8.70;99.90;;;;;;4989195;28;20224;-83
2021/03/27 12:30:51;;;;;;;0.40;0.40;;;8.80;99.90;;;;;;4978266;28;20284;-82
2021/03/27 12:33:34;;;;;;;2.13;1.13;;;8.70;99.90;;;;;;4976582;28;20218;-84
2021/03/27 12:36:21;;;;;;;0.93;0.93;;;8.50;99.90;;;;;;4994666;28;20222;-82
2021/03/27 12:39:14;;;;;;;0.93;0.57;;;8.50;99.90;;;;;;4980690;28;20707;-82
2021/03/27 12:41:59;;;;;;;1.70;0.70;;;8.40;99.90;;;;;;4981617;28;20231;-85
2021/03/27 12:44:43;;;;;;;5.30;1.07;;;8.90;99.90;;;;;;4998017;28;20770;-86
2021/03/27 12:47:36;;;;;;;2.10;0.70;;;9.10;99.90;;;;;;4980046;28;20211;-87
2021/03/27 12:50:20;;;;;;;1.83;1.10;;;9.10;99.90;;;;;;4980082;28;20846;-86
2021/03/27 12:53:09;;;;;;;0.20;0.20;;;8.90;99.90;;;;;;4992827;28;20195;-84
2021/03/27 12:55:59;;;;;;;1.83;0.90;;;8.80;99.90;;;;;;5000120;28;20227;-84
2021/03/27 12:58:32;;;;;;;6.00;3.33;;;8.90;99.90;;;;;;5000026;28;21202;-84
2021/03/27 13:01:10;;;;;;;2.83;1.80;;;8.70;99.90;;;;;;4999906;28;20305;-83
2021/03/27 13:03:49;;;;;;;0.40;0.40;;;8.90;99.90;;;;;;4983325;28;20222;-85
2021/03/27 13:06:41;;;;;;;1.10;0.77;;;8.90;99.90;;;;;;4983235;28;20251;-83
2021/03/27 13:09:13;;;;;;;1.23;0.60;;;8.90;99.90;;;;;;5001920;28;20244;-85
2021/03/27 13:11:48;;;;;;;0.70;0.67;;;9.00;99.90;;;;;;4999711;28;20231;-84
2021/03/27 13:14:44;;;;;;;1.90;1.20;;;9.00;99.90;;;;;;4992617;28;20175;-84
2021/03/27 13:17:27;;;;;;;1.63;1.43;;;8.80;99.90;;;;;;4993880;28;20203;-83
2021/03/27 13:20:02;;;;;;;0.60;0.60;;;8.10;99.90;;;;;;4998012;28;20237;-83
2021/03/27 13:22:36;;;;;;;0.70;0.70;;;7.80;99.90;;;;;;4976726;28;20350;-83
2021/03/27 13:25:17;;;;;;;3.67;1.10;;;7.80;99.90;;;;;;4973212;28;20219;-83
2021/03/27 13:28:13;;;;;;;0.67;0.47;;;7.70;99.90;;;;;;4997124;28;20333;-85
2021/03/27 13:30:44;;;;;;;0.47;0.47;;;7.90;99.90;;;;;;4982015;28;20242;-82
2021/03/27 13:33:16;;;;;;;2.67;2.13;;;8.60;99.90;;;;;;4981834;28;20501;-85
2021/03/27 13:35:51;;;;;;;1.10;0.63;;;8.50;99.90;;;;;;4976413;28;20608;-84
2021/03/27 13:38:32;;;;;;;1.67;0.70;;;8.40;99.90;;;;;;4990191;28;20223;-84
2021/03/27 13:41:07;;;;;;;1.03;0.90;;;8.80;99.90;;;;;;4995908;28;20206;-83
2021/03/27 13:43:42;;;;;;;3.03;1.50;;;9.10;99.90;;;;;;4980868;28;21238;-86
2021/03/27 13:46:26;;;;;;;4.00;0.87;;;9.00;99.90;;;;;;4978444;28;20222;-85
2021/03/27 13:49:12;;;;;;;0.77;0.77;;;8.80;99.90;;;;;;4979479;28;20227;-86
2021/03/27 13:51:46;;;;;;;2.60;0.70;;;9.20;99.90;;;;;;4968836;28;20302;-84
2021/03/27 13:54:53;;;;;;;3.90;1.63;;;9.20;99.90;;;;;;4969845;28;20223;-84
2021/03/27 13:57:25;;;;;;;1.57;1.33;;;9.40;99.90;;;;;;4951170;28;20241;-85
2021/03/27 14:00:05;;;;;;;1.60;1.50;;;9.00;99.90;;;;;;4998401;28;20296;-84
2021/03/27 14:02:53;;;;;;;1.07;0.60;;;9.10;99.90;;;;;;4992200;28;21272;-84
2021/03/27 14:05:45;;;;;;;1.67;0.70;;;9.10;99.90;;;;;;4991880;28;20227;-84
2021/03/27 14:08:36;;;;;;;1.93;0.53;;;9.10;99.90;;;;;;4981411;28;20195;-86
2021/03/27 14:11:14;;;;;;;1.20;1.10;;;9.50;99.90;;;;;;4980827;28;20210;-84
2021/03/27 14:13:58;;;;;;;0.77;0.77;;;9.50;99.90;;;;;;4982990;28;20187;-83
2021/03/27 14:17:00;;;;;;;3.40;1.50;;;9.10;99.90;;;;;;5000726;28;20243;-83
2021/03/27 14:19:54;;;;;;;0.80;0.80;;;9.20;99.90;;;;;;5000247;28;20233;-82
2021/03/27 14:22:42;;;;;;;5.30;2.27;;;8.80;99.90;;;;;;4980613;28;20251;-84
2021/03/27 14:25:36;;;;;;;0.97;0.67;;;8.80;99.90;;;;;;4992251;28;20230;-83